createdAt,value
2018-07-17T00:01:02.344Z,2.70
2018-07-17T00:03:33.504Z,2.90
2018-07-17T00:06:03.988Z,3.23
2018-07-17T00:08:34.400Z,2.30
2018-07-17T00:11:04.761Z,2.27
2018-07-17T00:13:34.852Z,2.53
2018-07-17T00:16:05.029Z,3.60
2018-07-17T00:18:35.159Z,3.50
2018-07-17T00:21:05.491Z,3.33
2018-07-17T00:23:35.637Z,2.83
2018-07-17T00:26:05.870Z,2.43
2018-07-17T00:28:35.976Z,3.03
2018-07-17T00:31:06.089Z,2.90
2018-07-17T00:33:36.351Z,2.60
2018-07-17T00:36:06.724Z,2.80
2018-07-17T00:38:36.866Z,2.83
2018-07-17T00:41:07.243Z,2.73
2018-07-17T00:43:37.420Z,2.30
2018-07-17T00:46:07.827Z,2.67
2018-07-17T00:48:37.955Z,2.60
2018-07-17T00:51:08.212Z,2.90
2018-07-17T00:53:38.380Z,3.00
2018-07-17T00:56:08.632Z,3.50
2018-07-17T00:58:38.399Z,2.70
2018-07-17T01:01:07.449Z,3.20
2018-07-17T01:03:42.506Z,2.67
2018-07-17T01:06:17.825Z,2.77
2018-07-17T01:08:53.221Z,3.00
2018-07-17T01:11:28.211Z,3.23
2018-07-17T01:14:19.463Z,3.00
2018-07-17T01:16:50.360Z,3.10
2018-07-17T01:19:20.544Z,2.73
2018-07-17T01:21:50.625Z,3.30
2018-07-17T01:24:20.803Z,3.60
2018-07-17T01:26:50.985Z,3.43
2018-07-17T01:29:21.405Z,3.47
2018-07-17T01:31:51.539Z,3.50
2018-07-17T01:34:21.747Z,3.50
2018-07-17T01:36:52.753Z,3.00
2018-07-17T01:39:22.901Z,2.93
2018-07-17T01:41:53.113Z,3.80
2018-07-17T01:44:23.211Z,2.90
2018-07-17T01:46:53.440Z,3.80
2018-07-17T01:49:23.656Z,3.13
2018-07-17T01:51:53.962Z,3.47
2018-07-17T01:54:24.291Z,3.60
2018-07-17T01:56:54.380Z,4.47
2018-07-17T01:59:24.550Z,3.07
2018-07-17T02:01:54.775Z,3.40
2018-07-17T02:04:25.002Z,3.90
2018-07-17T02:06:55.102Z,3.87
2018-07-17T02:09:26.343Z,3.83
2018-07-17T02:11:56.497Z,5.63
2018-07-17T02:14:26.669Z,3.90
2018-07-17T02:16:56.980Z,4.70
2018-07-17T02:19:27.173Z,4.10
2018-07-17T02:21:57.272Z,4.70
2018-07-17T02:24:27.392Z,3.63
2018-07-17T02:26:57.550Z,3.97
2018-07-17T02:29:27.383Z,4.30
2018-07-17T02:31:57.494Z,3.80
2018-07-17T02:34:27.692Z,4.37
2018-07-17T02:36:57.887Z,3.00
2018-07-17T02:39:28.013Z,3.53
2018-07-17T02:41:58.167Z,3.43
2018-07-17T02:44:28.253Z,3.97
2018-07-17T02:46:58.417Z,3.67
2018-07-17T02:49:28.596Z,3.60
2018-07-17T02:51:58.818Z,3.20
2018-07-17T02:54:29.059Z,4.67
2018-07-17T02:56:59.223Z,4.90
2018-07-17T02:59:29.381Z,3.90
2018-07-17T03:01:59.575Z,3.40
2018-07-17T03:04:30.127Z,4.30
2018-07-17T03:07:00.396Z,3.33
2018-07-17T03:09:30.691Z,3.47
2018-07-17T03:12:00.798Z,4.20
2018-07-17T03:14:31.012Z,4.00
2018-07-17T03:17:01.149Z,2.80
2018-07-17T03:19:31.297Z,3.80
2018-07-17T03:22:01.430Z,3.23
2018-07-17T03:24:31.645Z,3.13
2018-07-17T03:27:01.876Z,3.47
2018-07-17T03:29:32.086Z,3.53
2018-07-17T03:32:02.193Z,3.10
2018-07-17T03:34:32.593Z,3.90
2018-07-17T03:37:02.405Z,3.70
2018-07-17T03:39:32.718Z,3.90
2018-07-17T03:42:02.441Z,4.00
2018-07-17T03:44:32.618Z,3.87
2018-07-17T03:47:03.208Z,3.53
2018-07-17T03:49:33.397Z,4.03
2018-07-17T03:52:03.599Z,3.90
2018-07-17T03:54:33.802Z,3.50
2018-07-17T03:57:03.905Z,3.70
2018-07-17T03:59:34.061Z,4.70
2018-07-17T04:02:04.254Z,2.90
2018-07-17T04:04:34.459Z,3.10
2018-07-17T04:07:04.667Z,3.30
2018-07-17T04:09:34.856Z,3.90
2018-07-17T04:12:04.985Z,3.87
2018-07-17T04:14:35.131Z,4.37
2018-07-17T04:17:05.229Z,5.47
2018-07-17T04:19:35.407Z,4.47
2018-07-17T04:22:05.545Z,5.00
2018-07-17T04:24:35.731Z,3.50
2018-07-17T04:27:05.924Z,4.23
2018-07-17T04:29:36.070Z,5.53
2018-07-17T04:32:06.197Z,5.20
2018-07-17T04:34:36.301Z,4.73
2018-07-17T04:37:06.581Z,4.63
2018-07-17T04:39:36.807Z,5.73
2018-07-17T04:42:07.170Z,3.40
2018-07-17T04:44:37.324Z,5.07
2018-07-17T04:47:07.776Z,5.60
2018-07-17T04:49:37.965Z,5.97
2018-07-17T04:52:08.233Z,4.43
2018-07-17T04:54:38.399Z,5.60
2018-07-17T04:57:08.976Z,4.93
2018-07-17T04:59:38.724Z,5.80
2018-07-17T05:02:08.953Z,6.00
2018-07-17T05:04:39.119Z,5.03
2018-07-17T05:07:09.363Z,4.70
2018-07-17T05:09:39.538Z,5.30
2018-07-17T05:12:09.796Z,4.43
2018-07-17T05:14:40.082Z,5.57
2018-07-17T05:17:10.270Z,5.67
2018-07-17T05:19:40.474Z,5.93
2018-07-17T05:22:11.312Z,6.00
2018-07-17T05:24:41.483Z,6.27
2018-07-17T05:27:11.662Z,6.37
2018-07-17T05:29:41.803Z,6.23
2018-07-17T05:32:12.286Z,6.20
2018-07-17T05:34:42.426Z,6.00
2018-07-17T05:37:12.599Z,5.50
2018-07-17T05:39:43.044Z,5.30
2018-07-17T05:42:13.192Z,5.20
2018-07-17T05:44:43.321Z,5.27
2018-07-17T05:47:13.536Z,4.87
2018-07-17T05:49:43.687Z,5.50
2018-07-17T05:52:13.922Z,5.33
2018-07-17T05:54:44.034Z,5.20
2018-07-17T05:57:14.221Z,6.20
2018-07-17T05:59:44.339Z,5.37
2018-07-17T06:02:14.897Z,5.93
2018-07-17T06:04:45.056Z,6.10
2018-07-17T06:07:15.353Z,6.10
2018-07-17T06:09:45.123Z,5.13
2018-07-17T06:12:15.332Z,7.07
2018-07-17T06:14:45.524Z,7.40
2018-07-17T06:17:16.094Z,5.30
2018-07-17T06:19:46.221Z,6.17
2018-07-17T06:22:16.332Z,9.00
2018-07-17T06:24:46.602Z,9.90
2018-07-17T06:27:16.819Z,10.27
2018-07-17T06:29:47.062Z,13.33
2018-07-17T06:32:17.522Z,9.37
2018-07-17T06:34:47.773Z,10.70
2018-07-17T06:37:18.752Z,12.43
2018-07-17T06:39:48.920Z,11.30
2018-07-17T06:42:18.971Z,9.77
2018-07-17T06:44:49.406Z,8.70
2018-07-17T06:47:19.653Z,12.00
2018-07-17T06:49:49.945Z,12.70
2018-07-17T06:52:20.116Z,14.50
2018-07-17T06:54:50.277Z,12.33
2018-07-17T06:57:20.595Z,10.80
2018-07-17T06:59:50.768Z,8.80
2018-07-17T07:02:20.888Z,9.23
2018-07-17T07:04:51.133Z,7.70
2018-07-17T07:07:21.240Z,10.07
2018-07-17T07:09:51.476Z,9.20
2018-07-17T07:12:21.688Z,8.77
2018-07-17T07:14:51.845Z,9.17
2018-07-17T07:17:22.136Z,7.97
2018-07-17T07:19:52.299Z,9.80
2018-07-17T07:22:22.470Z,9.97
2018-07-17T07:24:52.623Z,9.50
2018-07-17T07:27:22.767Z,8.53
2018-07-17T07:29:52.943Z,7.30
2018-07-17T07:32:23.039Z,7.07
2018-07-17T07:34:53.326Z,7.20
2018-07-17T07:37:23.431Z,7.27
2018-07-17T07:39:53.545Z,6.67
2018-07-17T07:42:23.666Z,6.80
2018-07-17T07:44:53.944Z,8.00
2018-07-17T07:47:24.075Z,6.80
2018-07-17T07:49:54.324Z,6.80
2018-07-17T07:52:24.523Z,6.27
2018-07-17T07:54:54.747Z,5.50
2018-07-17T07:57:24.907Z,5.63
2018-07-17T07:59:55.127Z,7.53
2018-07-17T08:02:25.441Z,7.80
2018-07-17T08:04:55.872Z,8.93
2018-07-17T08:07:30.596Z,8.60
2018-07-17T08:10:01.010Z,8.63
2018-07-17T08:12:31.271Z,8.30
2018-07-17T08:15:02.699Z,8.23
2018-07-17T08:17:32.991Z,10.53
2018-07-17T08:20:03.346Z,9.53
2018-07-17T08:22:33.610Z,7.37
2018-07-17T08:25:03.817Z,8.87
2018-07-17T08:27:34.069Z,9.63
2018-07-17T08:30:04.424Z,7.60
2018-07-17T08:32:34.647Z,7.67
2018-07-17T08:35:05.098Z,7.03
2018-07-17T08:37:35.626Z,7.17
2018-07-17T08:40:06.270Z,7.27
2018-07-17T08:42:36.583Z,6.87
2018-07-17T08:45:14.131Z,6.57
2018-07-17T08:47:44.399Z,6.93
2018-07-17T08:50:14.596Z,6.80
2018-07-17T08:52:44.832Z,5.67
2018-07-17T08:55:15.011Z,15.83
2018-07-17T08:57:45.235Z,23.93
2018-07-17T09:00:15.462Z,13.37
2018-07-17T09:02:46.380Z,7.13
2018-07-17T09:05:18.175Z,6.13
2018-07-17T09:07:48.434Z,5.63
2018-07-17T09:10:19.174Z,6.40
2018-07-17T09:12:49.437Z,4.33
2018-07-17T09:15:19.678Z,4.10
2018-07-17T09:17:49.784Z,5.40
2018-07-17T09:20:19.978Z,6.07
2018-07-17T09:22:50.310Z,5.10
2018-07-17T09:25:20.481Z,5.03
2018-07-17T09:27:50.846Z,5.50
2018-07-17T09:30:21.042Z,5.17
2018-07-17T09:32:51.196Z,6.17
2018-07-17T09:35:21.431Z,5.50
2018-07-17T09:37:51.522Z,6.00
2018-07-17T09:40:21.669Z,9.43
2018-07-17T09:42:51.867Z,15.03
2018-07-17T09:45:22.068Z,9.80
2018-07-17T09:47:52.196Z,8.00
2018-07-17T09:50:22.356Z,7.60
2018-07-17T09:52:52.508Z,7.53
2018-07-17T09:55:22.664Z,7.87
2018-07-17T09:57:52.787Z,9.83
2018-07-17T10:00:27.889Z,8.20
2018-07-17T10:02:58.353Z,7.90
2018-07-17T10:05:33.421Z,10.15
2018-07-17T10:08:10.229Z,8.70
2018-07-17T10:10:42.635Z,9.60
2018-07-17T10:13:12.946Z,8.43
2018-07-17T10:15:43.166Z,7.23
2018-07-17T10:18:14.014Z,7.50
2018-07-17T10:20:44.243Z,6.93
2018-07-17T10:23:14.456Z,6.87
2018-07-17T10:25:44.727Z,6.50
2018-07-17T10:28:14.856Z,4.90
2018-07-17T10:30:48.155Z,4.97
2018-07-17T10:33:18.343Z,5.20
2018-07-17T10:35:48.431Z,5.20
2018-07-17T10:38:18.582Z,5.77
2018-07-17T10:40:48.733Z,5.43
2018-07-17T10:43:18.868Z,5.13
2018-07-17T10:45:49.158Z,4.47
2018-07-17T10:48:19.490Z,3.70
2018-07-17T10:50:49.622Z,3.33
2018-07-17T10:53:19.779Z,3.70
2018-07-17T10:55:55.322Z,3.87
2018-07-17T10:58:25.814Z,3.20
2018-07-17T11:00:56.998Z,3.07
2018-07-17T11:03:27.836Z,3.70
2018-07-17T11:05:58.428Z,3.30
2018-07-17T11:08:28.769Z,3.00
2018-07-17T11:10:58.908Z,2.50
2018-07-17T11:13:29.182Z,2.90
2018-07-17T11:15:59.679Z,3.20
2018-07-17T11:18:30.022Z,2.60
2018-07-17T11:21:00.152Z,2.37
2018-07-17T11:23:30.372Z,2.83
2018-07-17T11:26:01.084Z,3.17
2018-07-17T11:28:31.224Z,2.50
2018-07-17T11:31:01.429Z,2.97
2018-07-17T11:33:31.601Z,2.40
2018-07-17T11:36:01.748Z,3.30
2018-07-17T11:38:32.154Z,2.00
2018-07-17T11:41:03.182Z,2.50
2018-07-17T11:43:33.480Z,2.57
2018-07-17T11:46:03.639Z,3.30
2018-07-17T11:48:33.836Z,3.00
2018-07-17T11:51:04.103Z,3.20
2018-07-17T11:53:34.372Z,2.83
2018-07-17T11:56:04.702Z,2.77
2018-07-17T11:58:35.037Z,3.20
2018-07-17T12:01:05.279Z,3.07
2018-07-17T12:03:35.537Z,3.50
2018-07-17T12:06:05.771Z,2.87
2018-07-17T12:08:35.935Z,3.10
2018-07-17T12:11:06.311Z,2.83
2018-07-17T12:13:36.553Z,2.80
2018-07-17T12:16:07.102Z,2.60
2018-07-17T12:18:38.906Z,2.23
2018-07-17T12:21:09.227Z,2.07
2018-07-17T12:23:39.379Z,2.00
2018-07-17T12:26:09.690Z,2.10
2018-07-17T12:28:39.817Z,1.90
2018-07-17T12:31:09.963Z,2.10
2018-07-17T12:33:40.611Z,2.40
2018-07-17T12:36:10.917Z,2.83
2018-07-17T12:38:41.112Z,2.57
2018-07-17T12:41:11.472Z,2.50
2018-07-17T12:43:41.747Z,2.77
2018-07-17T12:46:11.908Z,2.47
2018-07-17T12:48:42.063Z,2.87
2018-07-17T12:51:12.205Z,2.37
2018-07-17T12:53:42.431Z,2.70
2018-07-17T12:56:12.707Z,2.00
2018-07-17T12:58:42.421Z,2.30
2018-07-17T13:01:12.510Z,1.87
2018-07-17T13:03:42.646Z,1.90
2018-07-17T13:06:12.841Z,2.63
2018-07-17T13:08:43.403Z,2.10
2018-07-17T13:11:13.791Z,1.83
2018-07-17T13:13:43.956Z,2.60
2018-07-17T13:16:14.394Z,2.20
2018-07-17T13:18:44.601Z,1.87
2018-07-17T13:21:14.740Z,2.47
2018-07-17T13:23:44.933Z,2.20
2018-07-17T13:26:15.186Z,1.50
2018-07-17T13:28:45.340Z,1.87
2018-07-17T13:31:15.142Z,1.70
2018-07-17T13:33:45.308Z,2.37
2018-07-17T13:36:15.885Z,1.70
2018-07-17T13:38:46.371Z,1.50
2018-07-17T13:41:16.534Z,2.23
2018-07-17T13:43:47.013Z,1.70
2018-07-17T13:46:17.286Z,1.50
2018-07-17T13:48:47.474Z,0.90
2018-07-17T13:51:17.600Z,1.50
2018-07-17T13:53:47.827Z,1.13
2018-07-17T13:56:18.038Z,1.50
2018-07-17T13:58:48.278Z,1.57
2018-07-17T14:01:19.422Z,1.30
2018-07-17T14:03:49.573Z,1.97
2018-07-17T14:06:19.982Z,1.93
2018-07-17T14:08:50.118Z,1.83
2018-07-17T14:11:20.298Z,1.87
2018-07-17T14:13:50.458Z,1.77
2018-07-17T14:16:20.775Z,1.73
2018-07-17T14:18:50.918Z,1.63
2018-07-17T14:21:21.106Z,1.70
2018-07-17T14:23:51.352Z,1.80
2018-07-17T14:26:21.496Z,1.80
2018-07-17T14:28:51.690Z,2.23
2018-07-17T14:31:21.462Z,2.10
2018-07-17T14:33:52.149Z,2.60
2018-07-17T14:36:22.549Z,2.00
2018-07-17T14:38:52.790Z,2.40
2018-07-17T14:41:22.997Z,2.53
2018-07-17T14:43:53.245Z,2.70
2018-07-17T14:46:23.532Z,2.70
2018-07-17T14:48:53.769Z,2.97
2018-07-17T14:51:23.430Z,3.03
2018-07-17T14:53:53.685Z,2.57
2018-07-17T14:56:23.814Z,2.97
2018-07-17T14:58:54.139Z,3.53
2018-07-17T15:01:24.402Z,3.30
2018-07-17T15:03:54.736Z,3.40
2018-07-17T15:06:24.904Z,3.30
2018-07-17T15:08:55.079Z,3.97
2018-07-17T15:11:25.381Z,3.13
2018-07-17T15:13:55.576Z,2.73
2018-07-17T15:16:25.918Z,2.97
2018-07-17T15:18:56.151Z,3.10
2018-07-17T15:21:26.358Z,3.00
2018-07-17T15:23:56.725Z,4.00
2018-07-17T15:26:26.899Z,3.20
2018-07-17T15:28:57.142Z,3.70
2018-07-17T15:31:27.296Z,3.83
2018-07-17T15:33:57.446Z,3.53
2018-07-17T15:36:27.665Z,4.03
2018-07-17T15:38:57.897Z,3.33
2018-07-17T15:41:28.064Z,3.70
2018-07-17T15:43:58.264Z,3.90
2018-07-17T15:46:28.505Z,4.17
2018-07-17T15:48:58.695Z,3.97
2018-07-17T15:51:28.877Z,4.33
2018-07-17T15:53:59.071Z,4.73
2018-07-17T15:56:29.209Z,4.80
2018-07-17T15:58:59.380Z,4.70
2018-07-17T16:01:29.552Z,4.87
2018-07-17T16:03:59.712Z,4.37
2018-07-17T16:06:29.864Z,5.27
2018-07-17T16:09:00.056Z,5.20
2018-07-17T16:11:30.328Z,5.30
2018-07-17T16:14:00.769Z,4.67
2018-07-17T16:16:30.709Z,5.33
2018-07-17T16:19:00.850Z,5.60
2018-07-17T16:21:30.984Z,4.60
2018-07-17T16:24:01.145Z,4.80
2018-07-17T16:26:31.306Z,4.37
2018-07-17T16:29:01.501Z,6.30
2018-07-17T16:31:31.769Z,5.93
2018-07-17T16:34:01.937Z,5.97
2018-07-17T16:36:32.032Z,5.00
2018-07-17T16:39:02.197Z,4.70
2018-07-17T16:41:32.382Z,4.67
2018-07-17T16:44:02.581Z,4.87
2018-07-17T16:46:32.720Z,4.93
2018-07-17T16:49:03.144Z,6.07
2018-07-17T16:51:33.825Z,5.30
2018-07-17T16:54:04.103Z,6.40
2018-07-17T16:56:35.768Z,5.70
2018-07-17T16:59:06.590Z,5.97
2018-07-17T17:01:37.211Z,5.57
2018-07-17T17:04:07.525Z,6.07
2018-07-17T17:06:37.851Z,6.70
2018-07-17T17:09:11.518Z,7.00
2018-07-17T17:11:41.867Z,6.00
2018-07-17T17:14:12.153Z,6.43
2018-07-17T17:16:42.317Z,6.60
2018-07-17T17:19:12.594Z,7.30
2018-07-17T17:21:42.796Z,6.63
2018-07-17T17:24:12.916Z,7.23
2018-07-17T17:26:43.059Z,6.83
2018-07-17T17:29:13.261Z,7.30
2018-07-17T17:31:43.420Z,6.57
2018-07-17T17:34:13.579Z,7.27
2018-07-17T17:36:44.025Z,6.50
2018-07-17T17:39:14.100Z,6.53
2018-07-17T17:41:44.206Z,7.47
2018-07-17T17:44:14.362Z,7.70
2018-07-17T17:46:45.403Z,7.83
2018-07-17T17:49:15.562Z,7.60
2018-07-17T17:51:45.715Z,6.93
2018-07-17T17:54:15.951Z,8.00
2018-07-17T17:56:46.235Z,6.43
2018-07-17T17:59:16.397Z,6.40
2018-07-17T18:01:46.535Z,5.67
2018-07-17T18:04:16.700Z,6.57
2018-07-17T18:06:46.849Z,6.60
2018-07-17T18:09:17.390Z,6.20
2018-07-17T18:11:47.568Z,6.03
2018-07-17T18:14:17.749Z,5.50
2018-07-17T18:16:47.844Z,4.80
2018-07-17T18:19:18.049Z,5.10
2018-07-17T18:21:48.189Z,4.30
2018-07-17T18:24:18.731Z,4.33
2018-07-17T18:26:48.973Z,3.53
2018-07-17T18:29:19.129Z,3.90
2018-07-17T18:31:49.429Z,3.47
2018-07-17T18:34:19.641Z,4.97
2018-07-17T18:36:49.754Z,3.93
2018-07-17T18:39:20.003Z,4.93
2018-07-17T18:41:50.221Z,3.10
2018-07-17T18:44:20.421Z,3.10
2018-07-17T18:46:50.715Z,3.20
2018-07-17T18:49:20.910Z,3.60
2018-07-17T18:51:51.106Z,4.30
2018-07-17T18:54:21.282Z,2.90
2018-07-17T18:56:51.397Z,2.93
2018-07-17T18:59:21.836Z,3.30
2018-07-17T19:01:52.008Z,2.77
2018-07-17T19:04:22.335Z,3.10
2018-07-17T19:06:52.581Z,2.37
2018-07-17T19:09:22.796Z,2.97
2018-07-17T19:11:53.042Z,2.50
2018-07-17T19:14:23.240Z,2.90
2018-07-17T19:16:53.441Z,2.33
2018-07-17T19:19:23.744Z,2.93
2018-07-17T19:21:53.867Z,2.77
2018-07-17T19:24:24.152Z,2.20
2018-07-17T19:26:54.305Z,2.70
2018-07-17T19:29:24.690Z,2.57
2018-07-17T19:31:54.844Z,2.57
2018-07-17T19:34:25.047Z,2.40
2018-07-17T19:36:55.137Z,2.30
2018-07-17T19:39:25.330Z,2.40
2018-07-17T19:41:55.463Z,2.43
2018-07-17T19:44:25.895Z,2.37
2018-07-17T19:46:56.037Z,1.87
2018-07-17T19:49:26.218Z,2.00
2018-07-17T19:51:56.366Z,2.40
2018-07-17T19:54:26.599Z,2.50
2018-07-17T19:56:56.718Z,2.43
2018-07-17T19:59:26.939Z,1.90
2018-07-17T20:01:57.473Z,2.63
2018-07-17T20:04:27.655Z,1.63
2018-07-17T20:06:57.889Z,1.90
2018-07-17T20:09:28.018Z,1.97
2018-07-17T20:11:58.211Z,1.70
2018-07-17T20:14:28.399Z,1.70
2018-07-17T20:16:58.174Z,1.97
2018-07-17T20:19:28.363Z,2.27
2018-07-17T20:21:58.062Z,2.40
2018-07-17T20:24:28.259Z,2.20
2018-07-17T20:26:58.408Z,1.93
2018-07-17T20:29:29.086Z,2.70
2018-07-17T20:31:59.300Z,2.07
2018-07-17T20:34:29.736Z,1.97
2018-07-17T20:36:59.943Z,1.73
2018-07-17T20:39:30.684Z,1.90
2018-07-17T20:42:00.883Z,2.23
2018-07-17T20:44:30.988Z,1.60
2018-07-17T20:47:01.133Z,1.67
2018-07-17T20:49:31.698Z,1.50
2018-07-17T20:52:01.938Z,2.13
2018-07-17T20:54:32.552Z,1.80
2018-07-17T20:57:03.171Z,2.33
2018-07-17T20:59:33.337Z,2.47
2018-07-17T21:02:03.890Z,1.80
2018-07-17T21:04:33.975Z,2.07
2018-07-17T21:07:04.886Z,1.50
2018-07-17T21:09:35.173Z,1.90
2018-07-17T21:12:05.783Z,1.70
2018-07-17T21:14:36.221Z,2.03
2018-07-17T21:17:13.560Z,2.10
2018-07-17T21:19:43.792Z,1.73
2018-07-17T21:22:14.242Z,1.77
2018-07-17T21:24:44.395Z,1.83
2018-07-17T21:29:53.145Z,2.30
2018-07-17T21:32:23.222Z,1.63
2018-07-17T21:34:53.484Z,1.40
2018-07-17T21:37:23.611Z,2.20
2018-07-17T21:39:53.809Z,2.10
2018-07-17T21:42:24.278Z,2.13
2018-07-17T21:44:54.603Z,1.90
2018-07-17T21:47:24.801Z,2.03
2018-07-17T21:49:55.043Z,1.87
2018-07-17T21:52:25.172Z,1.80
2018-07-17T21:54:55.394Z,2.23
2018-07-17T21:57:25.622Z,1.80
2018-07-17T21:59:55.795Z,1.80
2018-07-17T22:02:26.416Z,3.20
2018-07-17T22:04:56.678Z,1.93
2018-07-17T22:07:26.948Z,2.00
2018-07-17T22:09:57.113Z,2.33
2018-07-17T22:12:27.340Z,2.47
2018-07-17T22:14:57.502Z,2.00
2018-07-17T22:17:27.618Z,2.30
2018-07-17T22:19:57.792Z,2.90
2018-07-17T22:22:27.921Z,2.47
2018-07-17T22:24:58.092Z,3.13
2018-07-17T22:27:28.212Z,1.97
2018-07-17T22:29:58.555Z,2.60
2018-07-17T22:32:28.710Z,2.43
2018-07-17T22:34:58.925Z,2.50
2018-07-17T22:37:29.202Z,2.33
2018-07-17T22:39:59.478Z,2.13
2018-07-17T22:42:29.643Z,2.87
2018-07-17T22:44:59.819Z,3.00
2018-07-17T22:47:29.965Z,2.47
2018-07-17T22:50:00.161Z,2.20
2018-07-17T22:52:30.358Z,2.27
2018-07-17T22:55:00.540Z,2.50
2018-07-17T22:57:30.743Z,2.90
2018-07-17T23:00:11.420Z,2.40
2018-07-17T23:02:44.173Z,3.00
2018-07-17T23:05:16.354Z,2.97
2018-07-17T23:07:48.672Z,2.70
2018-07-17T23:10:23.857Z,2.60
2018-07-17T23:12:55.407Z,2.37
2018-07-17T23:15:27.364Z,3.07
2018-07-17T23:17:58.818Z,3.07
2018-07-17T23:20:29.096Z,3.23
2018-07-17T23:23:00.320Z,3.30
2018-07-17T23:25:31.881Z,2.90
2018-07-17T23:28:02.396Z,3.10
2018-07-17T23:30:32.745Z,3.43
2018-07-17T23:33:02.883Z,3.07
2018-07-17T23:35:33.039Z,3.00
2018-07-17T23:38:03.259Z,3.30
2018-07-17T23:40:33.468Z,3.23
2018-07-17T23:43:03.643Z,3.13
2018-07-17T23:45:33.767Z,2.70
2018-07-17T23:48:03.928Z,4.30
2018-07-17T23:50:34.249Z,2.93
2018-07-17T23:53:04.373Z,3.10
2018-07-17T23:55:34.661Z,3.63
2018-07-17T23:58:04.772Z,3.77
